Allison, Texas
Current Conditions -  °F | °C
As of 9:35 AM on Monday 22 Dec 2014 (Local Time) from KHHF Reporting Station
Scattered Clouds Scattered Clouds  
Wind Chill:   Ceiling: Unl
Heat Index: 10°   Visibility: NA
Dew Point:   Wind: 17mph
Humidity: 61%   Direction: 330°NNW
Pressure: 29.7"   Gusts: 23mph
Location:  35.61°N, 100.1°W
Report Text: KHHF 221535Z AUTO 33015G20KT SCT120 10/03 A2970 RMK AO2 T00970026 PWINO
Loading
Personal Weather Stations






























Interactive Weather Map New forecast layout! Learn more

10-Day Weather Forecast

Advertisements
Track Severe Weather on mobile